createdAt,value
2023-04-18T00:01:06.508Z,100268.09
2023-04-18T00:04:09.824Z,100259.97
2023-04-18T00:07:15.284Z,100266.38
2023-04-18T00:10:17.637Z,100286.16
2023-04-18T00:13:20.078Z,100267.84
2023-04-18T00:16:22.617Z,100270.25
2023-04-18T00:19:25.093Z,100267.00
2023-04-18T00:22:28.305Z,100290.56
2023-04-18T00:25:30.679Z,100295.66
2023-04-18T00:28:33.060Z,100268.63
2023-04-18T00:31:35.427Z,100293.22
2023-04-18T00:34:37.866Z,100278.81
2023-04-18T00:37:40.571Z,100287.78
2023-04-18T00:40:44.057Z,100289.88
2023-04-18T00:43:46.466Z,100290.47
2023-04-18T00:46:48.894Z,100291.31
2023-04-18T00:49:51.721Z,100293.69
2023-04-18T00:52:56.810Z,100256.91
2023-04-18T00:55:59.416Z,100290.91
2023-04-18T00:59:01.957Z,100282.94
2023-04-18T01:02:05.198Z,100267.25
2023-04-18T01:05:09.950Z,100277.72
2023-04-18T01:08:14.227Z,100269.63
2023-04-18T01:11:16.651Z,100255.78
2023-04-18T01:14:20.529Z,100252.44
2023-04-18T01:17:23.401Z,100260.22
2023-04-18T01:20:27.261Z,100271.00
2023-04-18T01:23:30.124Z,100283.03
2023-04-18T01:26:32.492Z,100282.44
2023-04-18T01:29:35.533Z,100287.38
2023-04-18T01:32:39.242Z,100286.91
2023-04-18T01:35:41.745Z,100265.84
2023-04-18T01:38:44.180Z,100268.00
2023-04-18T01:41:46.683Z,100285.28
2023-04-18T01:44:49.194Z,100291.03
2023-04-18T01:47:51.639Z,100262.63
2023-04-18T01:50:54.050Z,100288.44
2023-04-18T01:53:56.457Z,100279.69
2023-04-18T01:57:00.322Z,100288.22
2023-04-18T02:00:05.063Z,100285.59
2023-04-18T02:03:16.856Z,100260.22
2023-04-18T02:06:19.378Z,100285.59
2023-04-18T02:09:23.965Z,100286.44
2023-04-18T02:12:26.558Z,100285.44
2023-04-18T02:15:29.068Z,100290.59
2023-04-18T02:18:34.567Z,100266.38
2023-04-18T02:21:37.045Z,100274.91
2023-04-18T02:24:39.386Z,100254.09
2023-04-18T02:27:41.864Z,100272.00
2023-04-18T02:30:44.331Z,100259.88
2023-04-18T02:33:49.740Z,100264.50
2023-04-18T02:36:52.142Z,100260.50
2023-04-18T02:39:54.727Z,100288.50
2023-04-18T02:42:58.158Z,100282.09
2023-04-18T02:46:00.643Z,100259.69
2023-04-18T02:49:03.444Z,100288.97
2023-04-18T02:52:06.658Z,100265.34
2023-04-18T02:55:09.407Z,100291.19
2023-04-18T02:58:15.832Z,100281.78
2023-04-18T03:01:35.071Z,100291.41
2023-04-18T03:04:49.137Z,100296.91
2023-04-18T03:07:51.866Z,100295.59
2023-04-18T03:10:56.386Z,100291.03
2023-04-18T03:14:00.665Z,100293.50
2023-04-18T03:17:10.468Z,100298.34
2023-04-18T03:20:17.627Z,100297.19
2023-04-18T03:23:20.066Z,100294.94
2023-04-18T03:26:24.212Z,100275.81
2023-04-18T03:29:27.770Z,100289.81
2023-04-18T03:32:33.723Z,100268.38
2023-04-18T03:35:36.288Z,100246.63
2023-04-18T03:38:40.575Z,100265.09
2023-04-18T03:41:43.857Z,100270.13
2023-04-18T03:44:46.302Z,100273.47
2023-04-18T03:47:50.953Z,100290.06
2023-04-18T03:50:54.292Z,100268.31
2023-04-18T03:53:56.708Z,100298.59
2023-04-18T03:56:59.609Z,100294.59
2023-04-18T04:00:05.025Z,100284.69
2023-04-18T04:03:18.324Z,100301.63
2023-04-18T04:06:22.505Z,100314.47
2023-04-18T04:09:24.975Z,100279.75
2023-04-18T04:12:27.583Z,100281.63
2023-04-18T04:15:30.108Z,100295.97
2023-04-18T04:18:38.614Z,100297.88
2023-04-18T04:21:41.195Z,100332.84
2023-04-18T04:24:47.622Z,100328.44
2023-04-18T04:27:54.765Z,100314.88
2023-04-18T04:30:59.432Z,100302.22
2023-04-18T04:34:03.367Z,100332.88
2023-04-18T04:37:05.960Z,100342.84
2023-04-18T04:40:15.682Z,100319.38
2023-04-18T04:43:22.748Z,100320.94
2023-04-18T04:46:25.380Z,100347.13
2023-04-18T04:49:28.634Z,100351.75
2023-04-18T04:52:32.754Z,100329.63
2023-04-18T04:55:35.374Z,100336.25
2023-04-18T04:58:40.297Z,100348.31
2023-04-18T05:01:47.032Z,100357.88
2023-04-18T05:04:50.510Z,100345.31
2023-04-18T05:07:53.293Z,100365.66
2023-04-18T05:10:55.759Z,100359.81
2023-04-18T05:13:58.423Z,100365.94
2023-04-18T05:17:00.994Z,100346.69
2023-04-18T05:20:04.297Z,100347.31
2023-04-18T05:23:06.746Z,100347.38
2023-04-18T05:26:09.286Z,100343.63
2023-04-18T05:29:11.797Z,100375.66
2023-04-18T05:32:15.123Z,100375.78
2023-04-18T05:35:17.672Z,100379.09
2023-04-18T05:38:20.652Z,100383.06
2023-04-18T05:41:23.119Z,100374.78
2023-04-18T05:44:25.746Z,100369.88
2023-04-18T05:47:30.309Z,100347.19
2023-04-18T05:50:32.832Z,100334.72
2023-04-18T05:53:35.350Z,100360.88
2023-04-18T05:56:38.147Z,100379.97
2023-04-18T05:59:40.567Z,100371.38
2023-04-18T06:02:43.505Z,100391.78
2023-04-18T06:05:46.226Z,100365.94
2023-04-18T06:08:48.760Z,100396.00
2023-04-18T06:11:51.153Z,100401.56
2023-04-18T06:14:53.646Z,100398.25
2023-04-18T06:17:56.123Z,100406.38
2023-04-18T06:20:58.538Z,100400.59
2023-04-18T06:24:01.659Z,100379.03
2023-04-18T06:27:05.517Z,100420.16
2023-04-18T06:30:08.613Z,100414.63
2023-04-18T06:33:11.417Z,100373.13
2023-04-18T06:36:13.932Z,100416.88
2023-04-18T06:39:16.482Z,100394.00
2023-04-18T06:42:21.587Z,100404.59
2023-04-18T06:45:24.730Z,100407.41
2023-04-18T06:48:27.063Z,100414.16
2023-04-18T06:51:29.570Z,100434.56
2023-04-18T06:54:31.962Z,100428.41
2023-04-18T06:57:34.590Z,100421.94
2023-04-18T07:00:36.941Z,100437.53
2023-04-18T07:03:39.501Z,100439.31
2023-04-18T07:06:42.891Z,100424.16
2023-04-18T07:09:45.325Z,100441.81
2023-04-18T07:12:47.999Z,100435.84
2023-04-18T07:15:50.726Z,100443.06
2023-04-18T07:18:53.193Z,100434.56
2023-04-18T07:21:56.033Z,100446.97
2023-04-18T07:24:58.569Z,100437.50
2023-04-18T07:28:00.969Z,100449.38
2023-04-18T07:31:04.592Z,100470.22
2023-04-18T07:34:07.278Z,100471.84
2023-04-18T07:37:09.820Z,100472.44
2023-04-18T07:40:12.774Z,100454.34
2023-04-18T07:43:15.209Z,100477.00
2023-04-18T07:46:18.054Z,100467.25
2023-04-18T07:49:20.683Z,100460.25
2023-04-18T07:52:23.362Z,100477.38
2023-04-18T07:55:25.804Z,100461.44
2023-04-18T07:58:28.565Z,100474.22
2023-04-18T08:01:31.664Z,100469.47
2023-04-18T08:04:34.305Z,100463.34
2023-04-18T08:07:37.092Z,100468.84
2023-04-18T08:10:39.685Z,100466.16
2023-04-18T08:13:42.094Z,100490.28
2023-04-18T08:16:44.609Z,100495.81
2023-04-18T08:19:47.051Z,100468.56
2023-04-18T08:23:04.861Z,100491.41
2023-04-18T08:26:09.037Z,100507.34
2023-04-18T08:29:12.469Z,100500.16
2023-04-18T08:32:15.110Z,100508.47
2023-04-18T08:35:17.548Z,100484.19
2023-04-18T08:38:19.997Z,100507.84
2023-04-18T08:41:23.640Z,100508.06
2023-04-18T08:44:29.506Z,100486.75
2023-04-18T08:47:32.019Z,100519.25
2023-04-18T08:50:37.487Z,100452.34
2023-04-18T08:53:40.136Z,100500.75
2023-04-18T08:56:42.745Z,100497.38
2023-04-18T08:59:47.191Z,100524.34
2023-04-18T09:02:56.536Z,100511.22
2023-04-18T09:06:18.996Z,100500.22
2023-04-18T09:09:27.355Z,100513.25
2023-04-18T09:12:30.112Z,100476.59
2023-04-18T09:15:32.600Z,100492.09
2023-04-18T09:18:35.337Z,100486.06
2023-04-18T09:21:44.468Z,100521.28
2023-04-18T09:24:53.295Z,100522.75
2023-04-18T09:28:01.878Z,100524.56
2023-04-18T09:31:12.992Z,100514.03
2023-04-18T09:34:25.044Z,100517.19
2023-04-18T09:37:29.149Z,100506.81
2023-04-18T09:40:32.795Z,100515.41
2023-04-18T09:43:35.186Z,100520.22
2023-04-18T09:46:37.843Z,100524.22
2023-04-18T09:49:40.678Z,100516.69
2023-04-18T09:52:44.584Z,100511.56
2023-04-18T09:55:54.798Z,100470.97
2023-04-18T09:59:09.327Z,100483.19
2023-04-18T10:02:16.457Z,100478.94
2023-04-18T10:05:21.522Z,100497.13
2023-04-18T10:08:24.400Z,100489.09
2023-04-18T10:11:27.109Z,100482.22
2023-04-18T10:14:32.984Z,100483.22
2023-04-18T10:18:04.459Z,100494.44
2023-04-18T10:21:09.137Z,100478.28
2023-04-18T10:24:53.150Z,100498.94
2023-04-18T10:27:57.932Z,100465.66
2023-04-18T10:31:05.660Z,100481.63
2023-04-18T10:34:08.232Z,100476.06
2023-04-18T10:37:12.975Z,100477.38
2023-04-18T10:40:15.732Z,100449.34
2023-04-18T10:43:18.145Z,100466.03
2023-04-18T10:46:31.103Z,100465.19
2023-04-18T10:49:53.850Z,100438.75
2023-04-18T10:52:56.236Z,100464.28
2023-04-18T10:55:59.262Z,100451.25
2023-04-18T10:59:12.786Z,100433.72
2023-04-18T11:02:30.293Z,100439.56
2023-04-18T11:05:32.876Z,100431.91
2023-04-18T11:08:35.229Z,100447.78
2023-04-18T11:11:37.822Z,100428.59
2023-04-18T11:14:41.098Z,100449.84
2023-04-18T11:17:44.326Z,100424.91
2023-04-18T11:20:50.083Z,100431.59
2023-04-18T11:23:54.399Z,100426.44
2023-04-18T11:26:57.061Z,100435.22
2023-04-18T11:29:59.453Z,100450.25
2023-04-18T11:33:07.337Z,100449.56
2023-04-18T11:36:10.164Z,100448.22
2023-04-18T11:39:12.787Z,100426.63
2023-04-18T11:42:15.293Z,100437.81
2023-04-18T11:45:17.792Z,100428.31
2023-04-18T11:48:20.436Z,100452.91
2023-04-18T11:51:34.311Z,100447.69
2023-04-18T11:54:37.553Z,100447.84
2023-04-18T11:57:40.970Z,100445.88
2023-04-18T12:00:43.523Z,100439.72
2023-04-18T12:04:07.763Z,100432.91
2023-04-18T12:07:10.621Z,100438.72
2023-04-18T12:10:33.642Z,100435.13
2023-04-18T12:13:36.135Z,100428.19
2023-04-18T12:16:38.561Z,100419.03
2023-04-18T12:19:46.520Z,100419.84
2023-04-18T12:22:50.933Z,100399.34
2023-04-18T12:26:02.588Z,100397.56
2023-04-18T12:29:05.248Z,100412.78
2023-04-18T12:32:07.806Z,100371.44
2023-04-18T12:35:10.347Z,100389.31
2023-04-18T12:38:12.766Z,100386.41
2023-04-18T12:41:15.098Z,100388.03
2023-04-18T12:44:17.617Z,100405.84
2023-04-18T12:47:20.174Z,100398.78
2023-04-18T12:50:26.751Z,100396.47
2023-04-18T12:53:29.202Z,100388.75
2023-04-18T12:56:31.787Z,100384.75
2023-04-18T12:59:34.740Z,100368.59
2023-04-18T13:02:39.083Z,100372.63
2023-04-18T13:05:41.931Z,100378.78
2023-04-18T13:08:45.275Z,100351.56
2023-04-18T13:11:49.520Z,100350.50
2023-04-18T13:14:52.266Z,100367.75
2023-04-18T13:17:56.211Z,100368.28
2023-04-18T13:20:58.579Z,100355.97
2023-04-18T13:24:01.129Z,100344.59
2023-04-18T13:27:10.252Z,100339.00
2023-04-18T13:30:13.154Z,100338.06
2023-04-18T13:33:17.034Z,100352.66
2023-04-18T13:36:19.460Z,100325.72
2023-04-18T13:39:24.346Z,100342.34
2023-04-18T13:42:26.760Z,100349.78
2023-04-18T13:45:29.199Z,100355.19
2023-04-18T13:48:31.577Z,100332.56
2023-04-18T13:51:34.233Z,100347.66
2023-04-18T13:54:37.706Z,100340.16
2023-04-18T13:57:41.160Z,100317.94
2023-04-18T14:00:43.754Z,100310.81
2023-04-18T14:03:47.570Z,100340.94
2023-04-18T14:06:50.948Z,100319.66
2023-04-18T14:09:54.022Z,100344.19
2023-04-18T14:12:57.427Z,100302.31
2023-04-18T14:16:00.372Z,100337.53
2023-04-18T14:19:02.882Z,100350.25
2023-04-18T14:22:05.353Z,100337.00
2023-04-18T14:25:10.784Z,100366.88
2023-04-18T14:28:13.217Z,100335.97
2023-04-18T14:31:16.349Z,100338.56
2023-04-18T14:34:18.776Z,100340.16
2023-04-18T14:37:22.316Z,100344.84
2023-04-18T14:40:24.879Z,100341.81
2023-04-18T14:43:27.724Z,100378.88
2023-04-18T14:46:30.715Z,100376.94
2023-04-18T14:49:33.928Z,100354.34
2023-04-18T14:52:36.398Z,100376.59
2023-04-18T14:55:38.913Z,100382.44
2023-04-18T14:58:41.364Z,100369.03
2023-04-18T15:01:43.856Z,100377.34
2023-04-18T15:04:46.574Z,100391.31
2023-04-18T15:07:51.844Z,100404.47
2023-04-18T15:10:54.370Z,100387.81
2023-04-18T15:13:57.022Z,100376.06
2023-04-18T15:16:59.526Z,100361.56
2023-04-18T15:20:02.053Z,100399.97
2023-04-18T15:23:04.674Z,100374.19
2023-04-18T15:26:07.106Z,100403.84
2023-04-18T15:29:09.627Z,100387.00
2023-04-18T15:32:12.767Z,100360.97
2023-04-18T15:35:15.241Z,100407.34
2023-04-18T15:38:17.649Z,100386.25
2023-04-18T15:41:20.208Z,100414.56
2023-04-18T15:44:22.898Z,100367.13
2023-04-18T15:47:25.690Z,100386.13
2023-04-18T15:50:28.170Z,100387.38
2023-04-18T15:53:30.532Z,100392.00
2023-04-18T15:56:33.873Z,100410.88
2023-04-18T15:59:36.540Z,100391.47
2023-04-18T16:02:38.979Z,100413.00
2023-04-18T16:05:41.504Z,100428.69
2023-04-18T16:08:43.870Z,100403.72
2023-04-18T16:11:46.373Z,100396.25
2023-04-18T16:14:48.707Z,100429.81
2023-04-18T16:17:51.157Z,100418.59
2023-04-18T16:20:53.669Z,100417.25
2023-04-18T16:23:56.164Z,100421.84
2023-04-18T16:26:58.574Z,100412.06
2023-04-18T16:30:01.178Z,100419.66
2023-04-18T16:33:03.972Z,100419.53
2023-04-18T16:36:07.012Z,100420.03
2023-04-18T16:39:09.910Z,100420.44
2023-04-18T16:42:14.875Z,100421.59
2023-04-18T16:45:18.137Z,100382.91
2023-04-18T16:48:20.595Z,100417.19
2023-04-18T16:51:23.242Z,100424.78
2023-04-18T16:54:25.594Z,100419.84
2023-04-18T16:57:28.166Z,100392.97
2023-04-18T17:00:30.815Z,100394.59
2023-04-18T17:03:33.362Z,100396.00
2023-04-18T17:06:35.926Z,100404.50
2023-04-18T17:09:38.564Z,100421.25
2023-04-18T17:12:41.453Z,100418.53
2023-04-18T17:15:43.898Z,100422.88
2023-04-18T17:18:46.640Z,100416.41
2023-04-18T17:21:50.940Z,100398.22
2023-04-18T17:24:54.406Z,100389.41
2023-04-18T17:27:56.884Z,100391.50
2023-04-18T17:31:01.402Z,100400.16
2023-04-18T17:34:04.248Z,100418.19
2023-04-18T17:37:06.821Z,100399.06
2023-04-18T17:40:11.568Z,100416.50
2023-04-18T17:43:14.067Z,100402.34
2023-04-18T17:46:16.696Z,100417.53
2023-04-18T17:49:19.407Z,100428.66
2023-04-18T17:52:21.934Z,100428.34
2023-04-18T17:55:26.213Z,100402.53
2023-04-18T17:58:28.575Z,100435.56
2023-04-18T18:01:31.727Z,100413.34
2023-04-18T18:04:34.628Z,100427.84
2023-04-18T18:07:38.356Z,100436.94
2023-04-18T18:10:49.814Z,100388.56
2023-04-18T18:13:54.625Z,100400.78
2023-04-18T18:16:57.343Z,100422.19
2023-04-18T18:19:59.968Z,100435.44
2023-04-18T18:23:02.862Z,100434.16
2023-04-18T18:26:06.602Z,100436.81
2023-04-18T18:29:09.505Z,100413.63
2023-04-18T18:32:12.109Z,100422.97
2023-04-18T18:35:15.004Z,100431.78
2023-04-18T18:38:17.804Z,100367.38
2023-04-18T18:41:23.945Z,100435.44
2023-04-18T18:44:26.716Z,100427.75
2023-04-18T18:47:30.592Z,100420.53
2023-04-18T18:50:33.945Z,100415.59
2023-04-18T18:53:38.406Z,100405.41
2023-04-18T18:56:44.187Z,100420.28
2023-04-18T18:59:50.010Z,100400.19
2023-04-18T19:02:53.119Z,100407.16
2023-04-18T19:05:56.515Z,100414.81
2023-04-18T19:08:59.446Z,100434.53
2023-04-18T19:12:04.138Z,100392.28
2023-04-18T19:15:07.156Z,100431.91
2023-04-18T19:18:09.993Z,100426.47
2023-04-18T19:21:15.959Z,100427.66
2023-04-18T19:24:18.852Z,100426.22
2023-04-18T19:27:21.351Z,100374.16
2023-04-18T19:30:24.991Z,100421.63
2023-04-18T19:33:27.963Z,100412.63
2023-04-18T19:36:32.095Z,100411.28
2023-04-18T19:39:34.807Z,100390.31
2023-04-18T19:42:37.842Z,100377.75
2023-04-18T19:45:40.671Z,100409.41
2023-04-18T19:48:43.508Z,100386.41
2023-04-18T19:51:46.213Z,100392.47
2023-04-18T19:54:48.864Z,100405.22
2023-04-18T19:57:55.725Z,100407.06
2023-04-18T20:00:58.881Z,100417.75
2023-04-18T20:04:02.167Z,100402.72
2023-04-18T20:07:05.133Z,100422.19
2023-04-18T20:10:09.094Z,100400.94
2023-04-18T20:13:11.827Z,100416.78
2023-04-18T20:16:16.458Z,100327.53
2023-04-18T20:19:19.526Z,100361.28
2023-04-18T20:22:22.195Z,100420.03
2023-04-18T20:25:24.884Z,100410.91
2023-04-18T20:28:27.439Z,100384.88
2023-04-18T20:31:30.213Z,100388.63
2023-04-18T20:34:33.327Z,100409.69
2023-04-18T20:37:36.738Z,100410.75
2023-04-18T20:40:39.857Z,100388.25
2023-04-18T20:43:43.497Z,100396.59
2023-04-18T20:46:46.390Z,100383.13
2023-04-18T20:49:49.026Z,100383.81
2023-04-18T20:52:52.263Z,100412.91
2023-04-18T20:55:54.726Z,100380.56
2023-04-18T20:58:57.273Z,100405.78
2023-04-18T21:01:59.869Z,100380.53
2023-04-18T21:05:02.810Z,100357.09
2023-04-18T21:08:05.538Z,100416.06
2023-04-18T21:11:08.082Z,100380.44
2023-04-18T21:14:10.862Z,100328.66
2023-04-18T21:17:17.357Z,100371.16
2023-04-18T21:20:20.189Z,100376.91
2023-04-18T21:23:23.662Z,100392.28
2023-04-18T21:26:26.084Z,100392.06
2023-04-18T21:29:28.403Z,100386.19
2023-04-18T21:32:30.801Z,100384.56
2023-04-18T21:35:33.267Z,100367.63
2023-04-18T21:38:35.689Z,100391.06
2023-04-18T21:41:38.448Z,100376.28
2023-04-18T21:44:40.833Z,100387.72
2023-04-18T21:47:44.030Z,100345.03
2023-04-18T21:50:46.476Z,100359.44
2023-04-18T21:53:48.908Z,100357.59
2023-04-18T21:56:51.277Z,100384.63
2023-04-18T21:59:59.908Z,100378.81
2023-04-18T22:03:02.469Z,100354.47
2023-04-18T22:06:05.071Z,100366.19
2023-04-18T22:09:08.482Z,100370.94
2023-04-18T22:12:14.014Z,100345.56
2023-04-18T22:15:18.169Z,100348.84
2023-04-18T22:18:21.903Z,100337.31
2023-04-18T22:21:24.374Z,100339.63
2023-04-18T22:24:26.743Z,100346.97
2023-04-18T22:27:29.126Z,100360.75
2023-04-18T22:30:31.941Z,100328.34
2023-04-18T22:33:34.423Z,100358.34
2023-04-18T22:36:37.641Z,100332.69
2023-04-18T22:39:40.005Z,100334.84
2023-04-18T22:42:43.434Z,100334.19
2023-04-18T22:45:46.096Z,100336.47
2023-04-18T22:48:49.362Z,100307.47
2023-04-18T22:51:54.475Z,100347.38
2023-04-18T22:54:57.042Z,100324.78
2023-04-18T22:57:59.426Z,100296.13
2023-04-18T23:01:02.103Z,100345.06
2023-04-18T23:04:05.090Z,100302.94
2023-04-18T23:07:08.935Z,100331.94
2023-04-18T23:10:11.606Z,100336.56
2023-04-18T23:13:14.543Z,100306.88
2023-04-18T23:16:17.255Z,100331.09
2023-04-18T23:19:19.708Z,100320.06
2023-04-18T23:22:24.123Z,100318.25
2023-04-18T23:25:26.623Z,100320.97
2023-04-18T23:28:29.090Z,100288.81
2023-04-18T23:31:34.777Z,100282.00
2023-04-18T23:34:37.568Z,100290.38
2023-04-18T23:37:40.201Z,100277.66
2023-04-18T23:40:42.750Z,100286.03
2023-04-18T23:43:45.590Z,100285.03
2023-04-18T23:46:48.459Z,100258.13
2023-04-18T23:49:51.398Z,100289.53
2023-04-18T23:52:54.029Z,100264.41
2023-04-18T23:55:56.631Z,100256.72
2023-04-18T23:58:59.016Z,100279.50
